createdAt,value
2022-08-22T00:00:11.718Z,24.67
2022-08-22T00:02:59.073Z,19.50
2022-08-22T00:03:07.725Z,17.95
2022-08-22T00:03:08.439Z,20.83
2022-08-22T00:06:17.784Z,18.45
2022-08-22T00:11:22.138Z,16.75
2022-08-22T00:14:15.714Z,19.70
2022-08-22T00:17:24.608Z,20.88
2022-08-22T00:20:30.621Z,20.90
2022-08-22T00:23:24.261Z,16.70
2022-08-22T00:26:03.915Z,18.88
2022-08-22T00:28:39.191Z,16.00
2022-08-22T00:31:09.641Z,16.48
2022-08-22T00:34:00.442Z,12.70
2022-08-22T00:37:03.218Z,20.17
2022-08-22T00:39:36.453Z,17.48
2022-08-22T00:42:15.773Z,23.08
2022-08-22T00:45:09.054Z,20.88
2022-08-22T00:48:10.473Z,17.50
2022-08-22T00:51:00.686Z,22.08
2022-08-22T00:53:56.594Z,18.80
2022-08-22T00:56:42.388Z,18.02
2022-08-22T00:59:41.099Z,16.05
2022-08-22T01:02:55.512Z,17.27
2022-08-22T01:05:41.423Z,16.50
2022-08-22T01:08:39.110Z,21.67
2022-08-22T01:11:18.467Z,20.25
2022-08-22T01:14:15.290Z,20.60
2022-08-22T01:17:16.755Z,19.85
2022-08-22T01:20:01.412Z,17.67
2022-08-22T01:22:57.134Z,14.82
2022-08-22T01:25:39.586Z,21.98
2022-08-22T01:28:13.128Z,16.73
2022-08-22T01:30:52.477Z,17.50
2022-08-22T01:33:35.008Z,22.65
2022-08-22T01:36:20.603Z,21.70
2022-08-22T01:38:48.257Z,13.10
2022-08-22T01:41:35.714Z,18.08
2022-08-22T01:44:29.115Z,21.38
2022-08-22T01:47:00.723Z,18.45
2022-08-22T01:49:41.713Z,19.27
2022-08-22T01:52:35.374Z,16.70
2022-08-22T01:55:32.171Z,15.88
2022-08-22T01:58:14.553Z,14.05
2022-08-22T02:01:13.508Z,15.98
2022-08-22T02:03:53.714Z,21.40
2022-08-22T02:06:36.012Z,18.25
2022-08-22T02:09:40.384Z,16.08
2022-08-22T02:12:22.473Z,14.02
2022-08-22T02:15:03.041Z,21.98
2022-08-22T02:17:52.774Z,17.15
2022-08-22T02:20:30.827Z,19.58
2022-08-22T02:23:22.646Z,19.20
2022-08-22T02:26:08.560Z,15.85
2022-08-22T02:28:58.250Z,20.40
2022-08-22T02:31:43.200Z,16.20
2022-08-22T02:34:37.320Z,15.50
2022-08-22T02:37:49.674Z,16.30
2022-08-22T02:40:22.231Z,16.80
2022-08-22T02:42:57.521Z,16.42
2022-08-22T02:45:51.325Z,16.30
2022-08-22T02:48:32.654Z,12.98
2022-08-22T02:51:17.604Z,20.38
2022-08-22T02:53:56.292Z,15.68
2022-08-22T02:59:16.655Z,21.33
2022-08-22T03:01:46.740Z,16.23
2022-08-22T03:04:32.327Z,16.55
2022-08-22T03:07:22.523Z,18.45
2022-08-22T03:10:10.734Z,19.48
2022-08-22T03:13:00.965Z,12.15
2022-08-22T03:15:46.092Z,20.33
2022-08-22T03:18:27.821Z,19.90
2022-08-22T03:21:14.066Z,19.25
2022-08-22T03:23:48.980Z,13.55
2022-08-22T03:26:29.845Z,21.25
2022-08-22T03:29:08.950Z,18.20
2022-08-22T03:31:36.721Z,16.92
2022-08-22T03:34:24.804Z,11.82
2022-08-22T03:37:26.484Z,16.73
2022-08-22T03:40:02.021Z,16.27
2022-08-22T03:42:51.090Z,16.67
2022-08-22T03:45:55.493Z,15.88
2022-08-22T03:49:01.128Z,16.38
2022-08-22T03:51:39.675Z,16.38
2022-08-22T03:54:42.488Z,14.98
2022-08-22T03:57:20.954Z,20.92
2022-08-22T04:00:23.723Z,17.98
2022-08-22T04:03:14.452Z,17.80
2022-08-22T04:06:02.842Z,18.80
2022-08-22T04:08:49.133Z,13.07
2022-08-22T04:11:37.272Z,16.98
2022-08-22T04:14:04.973Z,18.40
2022-08-22T04:16:51.033Z,17.77
2022-08-22T04:19:48.445Z,12.70
2022-08-22T04:22:49.743Z,18.85
2022-08-22T04:25:23.495Z,13.98
2022-08-22T04:28:11.585Z,14.13
2022-08-22T04:31:14.075Z,12.77
2022-08-22T04:33:44.963Z,17.45
2022-08-22T04:36:26.649Z,9.38
2022-08-22T04:39:07.248Z,6.72
2022-08-22T04:41:54.977Z,5.50
2022-08-22T04:44:30.025Z,7.43
2022-08-22T04:47:03.658Z,6.70
2022-08-22T04:49:43.486Z,8.38
2022-08-22T04:52:32.196Z,4.97
2022-08-22T04:57:56.240Z,5.95
2022-08-22T05:00:24.306Z,5.78
2022-08-22T05:02:57.982Z,7.22
2022-08-22T05:05:32.142Z,5.15
2022-08-22T05:08:03.247Z,5.38
2022-08-22T05:10:41.669Z,5.38
2022-08-22T05:13:18.223Z,4.95
2022-08-22T05:15:50.390Z,2.90
2022-08-22T05:18:29.793Z,6.15
2022-08-22T05:21:02.585Z,7.07
2022-08-22T05:23:43.447Z,4.82
2022-08-22T05:26:13.391Z,4.47
2022-08-22T05:28:51.392Z,4.57
2022-08-22T05:31:29.278Z,5.75
2022-08-22T05:34:06.423Z,6.57
2022-08-22T05:36:41.353Z,4.03
2022-08-22T05:39:19.621Z,6.20
2022-08-22T05:41:50.020Z,3.80
2022-08-22T05:44:22.416Z,3.15
2022-08-22T05:47:04.932Z,4.45
2022-08-22T05:49:42.979Z,4.45
2022-08-22T05:52:28.754Z,3.47
2022-08-22T05:55:12.351Z,3.13
2022-08-22T05:57:43.955Z,3.75
2022-08-22T06:00:19.137Z,3.65
2022-08-22T06:03:15.846Z,7.37
2022-08-22T06:05:50.106Z,4.97
2022-08-22T06:08:24.276Z,4.47
2022-08-22T06:10:56.715Z,4.40
2022-08-22T06:13:37.263Z,4.03
2022-08-22T06:16:16.974Z,5.05
2022-08-22T06:18:45.950Z,6.63
2022-08-22T06:21:18.012Z,5.00
2022-08-22T06:23:53.234Z,4.88
2022-08-22T06:26:21.685Z,3.38
2022-08-22T06:28:55.569Z,5.50
2022-08-22T06:31:36.252Z,4.20
2022-08-22T06:34:23.676Z,3.63
2022-08-22T06:36:54.528Z,4.50
2022-08-22T06:39:27.098Z,5.68
2022-08-22T06:42:12.213Z,7.63
2022-08-22T06:44:53.683Z,7.88
2022-08-22T06:47:43.545Z,4.47
2022-08-22T06:50:30.151Z,4.63
2022-08-22T06:53:12.538Z,6.07
2022-08-22T06:55:52.662Z,4.85
2022-08-22T06:58:34.275Z,3.20
2022-08-22T07:01:11.777Z,3.28
2022-08-22T07:03:51.058Z,3.90
2022-08-22T07:08:55.842Z,3.97
2022-08-22T07:11:31.614Z,4.57
2022-08-22T07:14:02.425Z,4.40
2022-08-22T07:16:34.841Z,5.53
2022-08-22T07:19:02.690Z,6.10
2022-08-22T07:21:42.872Z,3.47
2022-08-22T07:24:14.836Z,3.97
2022-08-22T07:27:05.875Z,3.75
2022-08-22T07:29:52.022Z,4.45
2022-08-22T07:32:28.996Z,4.82
2022-08-22T07:35:08.702Z,3.63
2022-08-22T07:37:42.173Z,3.50
2022-08-22T07:40:27.508Z,3.47
2022-08-22T07:43:22.621Z,3.33
2022-08-22T07:45:54.209Z,6.57
2022-08-22T07:48:27.533Z,4.25
2022-08-22T07:51:08.653Z,5.35
2022-08-22T07:53:42.163Z,3.45
2022-08-22T07:56:19.610Z,4.13
2022-08-22T07:58:52.192Z,7.22
2022-08-22T08:01:22.291Z,3.97
2022-08-22T08:03:55.154Z,5.30
2022-08-22T08:06:24.867Z,2.72
2022-08-22T08:08:54.107Z,9.27
2022-08-22T08:11:25.218Z,5.05
2022-08-22T08:13:59.618Z,5.75
2022-08-22T08:16:39.930Z,3.90
2022-08-22T08:19:10.909Z,6.32
2022-08-22T08:21:49.862Z,3.90
2022-08-22T08:24:22.747Z,3.42
2022-08-22T08:27:13.747Z,3.45
2022-08-22T08:29:54.652Z,2.83
2022-08-22T08:32:24.399Z,5.20
2022-08-22T08:34:52.527Z,3.78
2022-08-22T08:37:27.897Z,5.63
2022-08-22T08:40:01.288Z,3.38
2022-08-22T08:43:15.420Z,5.05
2022-08-22T08:46:20.019Z,6.78
2022-08-22T08:49:06.570Z,4.22
2022-08-22T08:51:57.630Z,4.32
2022-08-22T08:54:55.691Z,4.38
2022-08-22T08:57:29.667Z,3.70
2022-08-22T08:59:57.348Z,5.75
2022-08-22T09:02:55.600Z,4.63
2022-08-22T09:05:45.298Z,4.55
2022-08-22T09:08:45.392Z,3.90
2022-08-22T09:11:38.430Z,4.63
2022-08-22T09:14:27.004Z,3.08
2022-08-22T09:17:12.736Z,4.95
2022-08-22T09:20:15.415Z,3.92
2022-08-22T09:23:00.389Z,4.00
2022-08-22T09:25:41.727Z,4.45
2022-08-22T09:28:17.319Z,6.30
2022-08-22T09:30:48.471Z,4.25
2022-08-22T09:33:24.904Z,3.75
2022-08-22T09:36:07.178Z,4.18
2022-08-22T09:38:53.296Z,4.53
2022-08-22T09:41:27.128Z,4.45
2022-08-22T09:44:32.042Z,4.03
2022-08-22T09:47:17.311Z,4.00
2022-08-22T09:50:12.332Z,6.03
2022-08-22T09:53:10.125Z,4.63
2022-08-22T09:55:40.388Z,3.53
2022-08-22T09:58:27.914Z,5.20
2022-08-22T10:00:55.772Z,4.30
2022-08-22T10:03:51.397Z,4.63
2022-08-22T10:06:27.380Z,5.70
2022-08-22T10:09:02.195Z,5.25
2022-08-22T10:11:42.300Z,4.43
2022-08-22T10:14:22.084Z,6.20
2022-08-22T10:17:08.085Z,3.88
2022-08-22T10:19:42.481Z,3.58
2022-08-22T10:22:41.644Z,4.97
2022-08-22T10:25:48.448Z,4.53
2022-08-22T10:28:28.491Z,2.97
2022-08-22T10:31:24.162Z,5.68
2022-08-22T10:34:04.417Z,3.40
2022-08-22T10:36:54.028Z,4.18
2022-08-22T10:39:29.087Z,3.05
2022-08-22T10:42:24.500Z,5.22
2022-08-22T10:45:16.528Z,6.18
2022-08-22T10:47:58.142Z,4.35
2022-08-22T10:50:32.761Z,3.78
2022-08-22T10:54:01.732Z,7.88
2022-08-22T10:56:45.074Z,3.72
2022-08-22T10:59:29.382Z,6.18
2022-08-22T11:02:03.019Z,5.10
2022-08-22T11:04:43.606Z,3.53
2022-08-22T11:07:29.176Z,3.05
2022-08-22T11:10:04.255Z,3.45
2022-08-22T11:12:42.895Z,4.50
2022-08-22T11:15:43.620Z,4.63
2022-08-22T11:19:02.502Z,6.97
2022-08-22T11:21:58.924Z,3.95
2022-08-22T11:25:11.704Z,4.10
2022-08-22T11:27:59.055Z,3.22
2022-08-22T11:30:53.017Z,4.78
2022-08-22T11:33:46.663Z,4.05
2022-08-22T11:36:40.036Z,4.00
2022-08-22T11:39:33.698Z,4.93
2022-08-22T11:42:23.689Z,3.75
2022-08-22T11:44:58.746Z,5.22
2022-08-22T11:47:50.521Z,3.72
2022-08-22T11:50:35.551Z,4.60
2022-08-22T11:53:18.982Z,3.85
2022-08-22T11:56:07.714Z,6.28
2022-08-22T11:58:40.855Z,5.10
2022-08-22T12:01:17.457Z,4.90
2022-08-22T12:04:00.144Z,6.15
2022-08-22T12:06:58.912Z,5.55
2022-08-22T12:09:32.255Z,5.18
2022-08-22T12:12:38.145Z,5.55
2022-08-22T12:15:17.709Z,2.50
2022-08-22T12:18:21.718Z,4.05
2022-08-22T12:20:52.669Z,4.35
2022-08-22T12:23:43.265Z,4.20
2022-08-22T12:26:36.405Z,5.95
2022-08-22T12:29:57.471Z,5.70
2022-08-22T12:32:45.736Z,4.88
2022-08-22T12:35:30.104Z,3.95
2022-08-22T12:38:28.250Z,6.57
2022-08-22T12:41:28.439Z,4.25
2022-08-22T12:44:21.253Z,4.20
2022-08-22T12:47:17.344Z,5.05
2022-08-22T12:50:04.148Z,5.75
2022-08-22T12:52:47.717Z,4.27
2022-08-22T12:55:50.634Z,4.03
2022-08-22T12:58:54.735Z,5.05
2022-08-22T13:01:33.854Z,4.90
2022-08-22T13:04:05.348Z,4.85
2022-08-22T13:06:36.007Z,6.97
2022-08-22T13:09:18.688Z,4.35
2022-08-22T13:11:50.552Z,5.43
2022-08-22T13:14:26.204Z,5.32
2022-08-22T13:16:58.877Z,3.70
2022-08-22T13:19:32.201Z,2.97
2022-08-22T13:22:13.880Z,4.60
2022-08-22T13:24:58.125Z,6.55
2022-08-22T13:27:51.289Z,2.55
2022-08-22T13:30:29.969Z,5.05
2022-08-22T13:33:05.652Z,3.25
2022-08-22T13:35:52.284Z,3.05
2022-08-22T13:38:28.021Z,4.63
2022-08-22T13:40:57.947Z,3.50
2022-08-22T13:43:30.271Z,4.43
2022-08-22T13:46:02.444Z,3.38
2022-08-22T13:49:00.604Z,4.35
2022-08-22T13:51:50.250Z,4.78
2022-08-22T13:54:52.804Z,5.40
2022-08-22T13:57:34.942Z,4.78
2022-08-22T14:00:22.339Z,4.65
2022-08-22T14:03:34.919Z,3.53
2022-08-22T14:06:35.397Z,4.50
2022-08-22T14:09:12.673Z,3.30
2022-08-22T14:11:50.394Z,7.35
2022-08-22T14:14:30.541Z,4.32
2022-08-22T14:16:59.553Z,3.70
2022-08-22T14:19:35.007Z,4.95
2022-08-22T14:22:32.496Z,3.15
2022-08-22T14:25:18.786Z,4.57
2022-08-22T14:28:01.192Z,5.53
2022-08-22T14:31:13.201Z,4.72
2022-08-22T14:33:48.741Z,4.05
2022-08-22T14:36:42.197Z,4.95
2022-08-22T14:39:22.259Z,5.25
2022-08-22T14:41:58.611Z,3.83
2022-08-22T14:44:33.902Z,4.85
2022-08-22T14:47:32.368Z,3.58
2022-08-22T14:50:00.851Z,3.08
2022-08-22T14:52:57.178Z,4.20
2022-08-22T14:55:28.520Z,4.35
2022-08-22T14:58:03.231Z,4.15
2022-08-22T15:00:31.167Z,5.43
2022-08-22T15:03:23.996Z,4.00
2022-08-22T15:06:00.763Z,5.45
2022-08-22T15:08:34.619Z,4.18
2022-08-22T15:11:07.734Z,4.18
2022-08-22T15:13:40.072Z,7.50
2022-08-22T15:16:21.278Z,5.43
2022-08-22T15:18:52.108Z,5.95
2022-08-22T15:21:24.567Z,4.63
2022-08-22T15:23:55.680Z,4.70
2022-08-22T15:26:31.461Z,5.05
2022-08-22T15:29:20.235Z,6.18
2022-08-22T15:31:52.132Z,4.70
2022-08-22T15:34:31.266Z,5.43
2022-08-22T15:37:05.147Z,5.55
2022-08-22T15:39:59.910Z,6.20
2022-08-22T15:42:34.912Z,5.65
2022-08-22T15:45:03.633Z,3.58
2022-08-22T15:47:40.044Z,6.00
2022-08-22T15:50:27.268Z,5.85
2022-08-22T15:53:07.255Z,3.90
2022-08-22T15:55:36.967Z,4.25
2022-08-22T15:58:21.291Z,5.90
2022-08-22T16:01:19.943Z,5.97
2022-08-22T16:04:06.461Z,4.63
2022-08-22T16:06:47.420Z,4.85
2022-08-22T16:09:53.135Z,4.43
2022-08-22T16:12:45.996Z,5.60
2022-08-22T16:15:44.076Z,4.22
2022-08-22T16:18:34.504Z,5.13
2022-08-22T16:21:11.425Z,4.97
2022-08-22T16:23:46.434Z,8.13
2022-08-22T16:26:31.158Z,5.82
2022-08-22T16:29:14.971Z,5.03
2022-08-22T16:31:48.212Z,5.60
2022-08-22T16:34:16.246Z,5.45
2022-08-22T16:36:49.549Z,6.90
2022-08-22T16:39:22.925Z,5.82
2022-08-22T16:42:23.072Z,3.75
2022-08-22T16:45:02.738Z,5.13
2022-08-22T16:47:33.016Z,5.95
2022-08-22T16:50:15.621Z,7.22
2022-08-22T16:52:55.248Z,6.03
2022-08-22T16:55:28.977Z,5.97
2022-08-22T16:58:20.614Z,7.15
2022-08-22T17:01:18.078Z,5.25
2022-08-22T17:03:51.447Z,5.00
2022-08-22T17:06:49.895Z,4.65
2022-08-22T17:09:51.521Z,6.95
2022-08-22T17:12:46.893Z,5.75
2022-08-22T17:15:47.443Z,6.30
2022-08-22T17:18:46.062Z,6.97
2022-08-22T17:21:57.249Z,4.88
2022-08-22T17:24:32.090Z,6.47
2022-08-22T17:27:26.692Z,5.18
2022-08-22T17:29:59.819Z,4.53
2022-08-22T17:33:02.859Z,5.43
2022-08-22T17:36:26.241Z,6.60
2022-08-22T17:39:16.712Z,5.20
2022-08-22T17:42:00.588Z,6.97
2022-08-22T17:45:07.365Z,5.75
2022-08-22T17:48:00.858Z,5.20
2022-08-22T17:50:55.063Z,4.20
2022-08-22T17:53:57.514Z,5.20
2022-08-22T17:56:28.828Z,7.00
2022-08-22T17:59:06.841Z,5.13
2022-08-22T18:01:50.761Z,6.63
2022-08-22T18:04:52.269Z,6.55
2022-08-22T18:07:48.926Z,4.55
2022-08-22T18:10:38.709Z,9.27
2022-08-22T18:13:15.075Z,4.50
2022-08-22T18:15:53.240Z,5.07
2022-08-22T18:18:33.525Z,5.18
2022-08-22T18:21:08.637Z,6.82
2022-08-22T18:23:44.535Z,5.05
2022-08-22T18:26:50.532Z,4.68
2022-08-22T18:29:31.568Z,6.93
2022-08-22T18:32:07.958Z,6.28
2022-08-22T18:34:41.576Z,7.10
2022-08-22T18:37:35.396Z,6.07
2022-08-22T18:40:28.800Z,5.93
2022-08-22T18:43:14.957Z,9.10
2022-08-22T18:45:48.282Z,5.13
2022-08-22T18:48:22.494Z,5.40
2022-08-22T18:50:50.520Z,6.38
2022-08-22T18:53:56.827Z,5.33
2022-08-22T18:56:43.505Z,7.00
2022-08-22T18:59:36.716Z,6.22
2022-08-22T19:02:10.567Z,5.35
2022-08-22T19:04:50.508Z,6.05
2022-08-22T19:07:30.011Z,5.90
2022-08-22T19:10:05.835Z,5.07
2022-08-22T19:12:33.687Z,7.00
2022-08-22T19:15:28.947Z,7.40
2022-08-22T19:18:23.193Z,6.35
2022-08-22T19:21:35.670Z,6.65
2022-08-22T19:24:28.126Z,4.20
2022-08-22T19:27:11.452Z,3.95
2022-08-22T19:29:41.642Z,5.25
2022-08-22T19:32:31.123Z,5.78
2022-08-22T19:35:24.473Z,4.03
2022-08-22T19:38:01.932Z,5.30
2022-08-22T19:40:45.151Z,6.50
2022-08-22T19:43:40.465Z,8.13
2022-08-22T19:46:12.031Z,5.90
2022-08-22T19:48:50.374Z,5.88
2022-08-22T19:51:20.806Z,4.82
2022-08-22T19:54:02.391Z,5.32
2022-08-22T19:57:01.070Z,5.22
2022-08-22T19:59:50.871Z,5.15
2022-08-22T20:02:52.949Z,5.80
2022-08-22T20:05:45.493Z,5.20
2022-08-22T20:08:21.363Z,4.90
2022-08-22T20:11:18.799Z,5.35
2022-08-22T20:13:46.962Z,5.18
2022-08-22T20:17:01.689Z,5.88
2022-08-22T20:22:47.171Z,7.03
2022-08-22T20:25:41.535Z,5.30
2022-08-22T20:28:31.138Z,5.70
2022-08-22T20:31:02.397Z,5.28
2022-08-22T20:33:37.515Z,5.50
2022-08-22T20:36:18.530Z,5.03
2022-08-22T20:39:03.133Z,5.97
2022-08-22T20:41:55.234Z,4.85
2022-08-22T20:44:25.615Z,4.85
2022-08-22T20:47:06.133Z,4.85
2022-08-22T20:49:44.358Z,5.05
2022-08-22T20:52:29.817Z,6.97
2022-08-22T20:55:12.046Z,7.00
2022-08-22T20:57:53.505Z,6.57
2022-08-22T21:00:28.314Z,5.30
2022-08-22T21:03:02.547Z,5.85
2022-08-22T21:05:39.718Z,5.07
2022-08-22T21:08:22.602Z,5.88
2022-08-22T21:11:21.240Z,5.10
2022-08-22T21:13:49.699Z,5.50
2022-08-22T21:16:33.029Z,4.03
2022-08-22T21:19:04.083Z,5.50
2022-08-22T21:21:35.105Z,5.63
2022-08-22T21:24:06.769Z,4.97
2022-08-22T21:26:58.544Z,5.38
2022-08-22T21:29:32.391Z,4.90
2022-08-22T21:32:13.557Z,7.72
2022-08-22T21:34:44.209Z,7.97
2022-08-22T21:37:17.041Z,6.78
2022-08-22T21:39:49.928Z,6.38
2022-08-22T21:42:38.065Z,6.43
2022-08-22T21:45:12.553Z,5.28
2022-08-22T21:47:42.888Z,5.82
2022-08-22T21:50:13.677Z,5.10
2022-08-22T21:53:04.248Z,4.60
2022-08-22T21:55:35.172Z,8.77
2022-08-22T21:58:34.167Z,5.70
2022-08-22T22:01:25.070Z,7.25
2022-08-22T22:03:55.438Z,5.70
2022-08-22T22:06:22.969Z,7.03
2022-08-22T22:08:50.954Z,4.68
2022-08-22T22:11:18.825Z,6.90
2022-08-22T22:13:46.431Z,4.53
2022-08-22T22:16:18.673Z,4.78
2022-08-22T22:18:46.291Z,5.03
2022-08-22T22:21:13.886Z,6.20
2022-08-22T22:23:41.383Z,5.35
2022-08-22T22:26:15.240Z,5.80
2022-08-22T22:28:49.266Z,6.73
2022-08-22T22:31:18.358Z,6.15
2022-08-22T22:33:46.166Z,5.63
2022-08-22T22:36:23.535Z,4.67
2022-08-22T22:38:52.134Z,7.75
2022-08-22T22:41:23.395Z,6.13
2022-08-22T22:43:55.155Z,7.38
2022-08-22T22:46:23.699Z,4.63
2022-08-22T22:48:51.923Z,5.40
2022-08-22T22:51:20.239Z,5.15
2022-08-22T22:53:48.521Z,6.63
2022-08-22T22:56:22.405Z,5.03
2022-08-22T22:58:58.928Z,5.85
2022-08-22T23:01:28.754Z,5.93
2022-08-22T23:03:59.220Z,6.80
2022-08-22T23:06:33.745Z,5.47
2022-08-22T23:09:01.306Z,4.70
2022-08-22T23:11:30.391Z,8.48
2022-08-22T23:13:57.991Z,6.53
2022-08-22T23:16:28.187Z,5.32
2022-08-22T23:18:56.284Z,5.47
2022-08-22T23:21:28.287Z,6.10
2022-08-22T23:23:58.682Z,6.10
2022-08-22T23:26:27.217Z,6.28
2022-08-22T23:28:56.085Z,6.05
2022-08-22T23:31:31.366Z,5.53
2022-08-22T23:34:05.612Z,5.03
2022-08-22T23:36:33.285Z,5.13
2022-08-22T23:39:01.070Z,7.57
2022-08-22T23:41:29.094Z,6.80
2022-08-22T23:43:56.869Z,6.07
2022-08-22T23:46:26.421Z,5.67
2022-08-22T23:48:54.298Z,7.10
2022-08-22T23:51:24.352Z,5.90
2022-08-22T23:53:54.524Z,6.00
2022-08-22T23:56:40.019Z,5.88
2022-08-22T23:59:12.379Z,5.18
